Time;durP1;ratioP1;P1;durP2;ratioP2;P2;SDS_P1;SDS_P2;PMS_P1;PMS_P2;Temp;Humidity;BMP_temperature;BMP_pressure;BME280_temperature;BME280_humidity;BME280_pressure;Samples;Min_cycle;Max_cycle;Signal;HPM_P1;HPM_P2
2022/03/25 00:01:51;;;;;;;;;;;;;;;16.41;59.59;103183.25;6310817;22;19911;-81
2022/03/25 00:04:17;;;;;;;;;;;;;;;16.41;59.62;103180.66;6340216;22;19921;-80
2022/03/25 00:06:42;;;;;;;;;;;;;;;16.40;59.86;103186.72;6367170;22;19899;-81
2022/03/25 00:09:07;;;;;;;;;;;;;;;16.40;59.50;103186.72;6339345;22;19928;-80
2022/03/25 00:11:32;;;;;;;;;;;;;;;16.39;60.05;103182.31;6339579;22;19969;-80
2022/03/25 00:13:58;;;;;;;;;;;;;;;16.39;59.46;103179.72;6340078;22;19898;-81
2022/03/25 00:16:24;;;;;;;;;;;;;;;16.36;59.94;103183.13;6312036;22;19911;-79
2022/03/25 00:18:50;;;;;;;;;;;;;;;16.36;59.74;103183.13;6361614;22;19935;-81
2022/03/25 00:21:15;;;;;;;;;;;;;;;16.36;58.91;103177.03;6340023;22;19918;-81
2022/03/25 00:23:40;;;;;;;;;;;;;;;16.36;59.33;103179.63;6313987;22;19902;-80
2022/03/25 00:26:05;;;;;;;;;;;;;;;16.37;58.94;103184.00;6363236;22;19914;-81
2022/03/25 00:28:31;;;;;;;;;;;;;;;16.38;59.21;103188.38;6337763;22;19922;-81
2022/03/25 00:30:56;;;;;;;;;;;;;;;16.40;59.69;103184.09;6338928;22;19907;-81
2022/03/25 00:33:21;;;;;;;;;;;;;;;16.40;58.87;103181.50;6366592;22;19891;-81
2022/03/25 00:35:46;;;;;;;;;;;;;;;16.40;59.10;103179.78;6313384;22;19936;-80
2022/03/25 00:38:12;;;;;;;;;;;;;;;16.39;59.44;103184.94;6363732;22;19910;-80
2022/03/25 00:40:37;;;;;;;;;;;;;;;16.41;59.46;103178.94;6338207;22;19970;-81
2022/03/25 00:43:02;;;;;;;;;;;;;;;16.42;59.46;103177.25;6312967;22;19903;-79
2022/03/25 00:45:29;;;;;;;;;;;;;;;16.41;58.99;103181.53;6312603;22;19942;-81
2022/03/25 00:47:59;;;;;;;;;;;;;;;16.39;59.28;103183.19;6313517;22;19918;-81
2022/03/25 00:50:24;;;;;;;;;;;;;;;16.37;59.14;103181.38;6339150;22;19907;-81
2022/03/25 00:52:50;;;;;;;;;;;;;;;16.35;59.19;103181.38;6313342;22;19917;-81
2022/03/25 00:55:15;;;;;;;;;;;;;;;16.31;59.58;103178.59;6313467;22;19915;-80
2022/03/25 00:57:40;;;;;;;;;;;;;;;16.34;58.88;103178.72;6312931;22;19917;-80
2022/03/25 01:00:06;;;;;;;;;;;;;;;16.33;58.89;103177.84;6360965;22;19934;-81
2022/03/25 01:02:31;;;;;;;;;;;;;;;16.35;59.10;103176.16;6337572;22;19891;-81
2022/03/25 01:04:56;;;;;;;;;;;;;;;16.35;59.20;103180.47;6311216;22;19936;-80
2022/03/25 01:07:22;;;;;;;;;;;;;;;16.36;59.21;103175.31;6308621;22;19911;-80
2022/03/25 01:09:47;;;;;;;;;;;;;;;16.34;58.79;103178.72;6334064;22;20235;-80
2022/03/25 01:12:12;;;;;;;;;;;;;;;16.36;58.94;103180.50;6311038;22;19895;-81
2022/03/25 01:14:38;;;;;;;;;;;;;;;16.36;58.82;103187.44;6337931;22;19910;-81
2022/03/25 01:17:03;;;;;;;;;;;;;;;16.36;58.74;103184.84;6338263;22;19907;-80
2022/03/25 01:19:29;;;;;;;;;;;;;;;16.33;58.32;103179.53;6311860;22;19910;-81
2022/03/25 01:21:57;;;;;;;;;;;;;;;16.34;58.95;103181.31;6337252;22;19937;-81
2022/03/25 01:24:23;;;;;;;;;;;;;;;16.33;59.04;103183.03;6337576;22;19914;-82
2022/03/25 01:26:48;;;;;;;;;;;;;;;16.37;59.08;103184.88;6337148;22;19909;-80
2022/03/25 01:29:13;;;;;;;;;;;;;;;16.38;59.07;103183.19;6364350;22;19936;-81
2022/03/25 01:31:39;;;;;;;;;;;;;;;16.38;59.12;103178.84;6337205;22;19906;-81
2022/03/25 01:34:04;;;;;;;;;;;;;;;16.34;58.34;103179.59;6364584;22;19929;-81
2022/03/25 01:36:30;;;;;;;;;;;;;;;16.36;58.44;103182.25;6338218;22;19932;-81
2022/03/25 01:38:55;;;;;;;;;;;;;;;16.35;58.89;103176.16;6337198;22;19911;-81
2022/03/25 01:41:21;;;;;;;;;;;;;;;16.35;58.94;103186.56;6332823;22;19910;-81
2022/03/25 01:43:51;;;;;;;;;;;;;;;16.34;58.79;103183.91;6338306;22;20333;-81
2022/03/25 01:46:17;;;;;;;;;;;;;;;16.32;58.83;103182.97;6338286;22;19932;-81
2022/03/25 01:48:42;;;;;;;;;;;;;;;16.30;58.52;103179.44;6366842;22;19910;-81
2022/03/25 01:51:08;;;;;;;;;;;;;;;16.31;59.02;103179.50;6339320;22;19907;-81
2022/03/25 01:53:33;;;;;;;;;;;;;;;16.30;58.98;103176.84;6314276;22;19959;-80
2022/03/25 01:56:00;;;;;;;;;;;;;;;16.31;58.55;103174.28;6313709;22;19910;-80
2022/03/25 01:58:27;;;;;;;;;;;;;;;16.29;58.38;103173.34;6339816;22;19951;-80
2022/03/25 02:00:52;;;;;;;;;;;;;;;16.29;58.54;103175.06;6339828;22;19899;-81
2022/03/25 02:03:17;;;;;;;;;;;;;;;16.27;58.38;103177.63;6366575;22;19906;-81
2022/03/25 02:05:47;;;;;;;;;;;;;;;16.29;59.13;103178.56;6339508;22;19911;-80
2022/03/25 02:08:12;;;;;;;;;;;;;;;16.32;58.36;103172.56;6339760;22;19910;-81
2022/03/25 02:10:38;;;;;;;;;;;;;;;16.29;58.85;103170.75;6338815;22;19907;-80
2022/03/25 02:13:03;;;;;;;;;;;;;;;16.30;58.03;103177.72;6312851;22;19911;-80
2022/03/25 02:15:32;;;;;;;;;;;;;;;16.29;58.46;103178.56;6313033;22;19963;-80
2022/03/25 02:18:00;;;;;;;;;;;;;;;16.28;58.77;103175.91;6367427;22;19906;-81
2022/03/25 02:20:26;;;;;;;;;;;;;;;16.28;58.18;103181.09;6340694;22;19930;-80
2022/03/25 02:22:51;;;;;;;;;;;;;;;16.27;58.40;103177.63;6312409;22;19911;-79
2022/03/25 02:25:21;;;;;;;;;;;;;;;16.28;58.52;103181.97;6309405;22;21671;-80
2022/03/25 02:27:48;;;;;;;;;;;;;;;16.20;58.73;103181.72;6340551;22;19901;-80
2022/03/25 02:30:13;;;;;;;;;;;;;;;16.20;59.16;103179.13;6340737;22;19891;-81
2022/03/25 02:32:39;;;;;;;;;;;;;;;16.24;58.95;103178.41;6338851;22;19954;-80
2022/03/25 02:35:05;;;;;;;;;;;;;;;16.27;58.91;103172.44;6338824;22;19907;-80
2022/03/25 02:37:30;;;;;;;;;;;;;;;16.29;58.61;103169.84;6335592;22;19907;-80
2022/03/25 02:39:56;;;;;;;;;;;;;;;16.27;58.87;103171.56;6364948;22;19914;-80
2022/03/25 02:42:21;;;;;;;;;;;;;;;16.24;58.23;103170.63;6338579;22;19913;-80
2022/03/25 02:44:48;;;;;;;;;;;;;;;16.28;57.94;103162.91;6336986;22;19906;-80
2022/03/25 02:47:13;;;;;;;;;;;;;;;16.33;57.68;103169.13;6338533;22;19906;-80
2022/03/25 02:49:39;;;;;;;;;;;;;;;16.22;58.18;103169.69;6341104;22;19897;-80
2022/03/25 02:52:04;;;;;;;;;;;;;;;16.17;58.54;103176.41;6341707;22;19911;-81
2022/03/25 02:54:29;;;;;;;;;;;;;;;16.18;58.85;103167.81;6340811;22;19914;-81
2022/03/25 02:56:55;;;;;;;;;;;;;;;16.16;58.56;103172.06;6340358;22;19918;-81
2022/03/25 02:59:20;;;;;;;;;;;;;;;16.18;58.68;103170.41;6368593;22;19899;-80
2022/03/25 03:01:45;;;;;;;;;;;;;;;16.18;58.67;103173.00;6315872;22;19911;-80
2022/03/25 03:04:11;;;;;;;;;;;;;;;16.14;58.55;103170.25;6341947;22;19898;-81
2022/03/25 03:06:36;;;;;;;;;;;;;;;16.11;58.56;103170.13;6309388;22;19899;-81
2022/03/25 03:09:01;;;;;;;;;;;;;;;16.12;58.68;103170.19;6340775;22;19921;-81
2022/03/25 03:11:28;;;;;;;;;;;;;;;16.13;57.86;103173.66;6340227;22;19910;-80
2022/03/25 03:13:53;;;;;;;;;;;;;;;16.09;58.55;103175.31;6314990;22;19941;-81
2022/03/25 03:16:19;;;;;;;;;;;;;;;16.11;59.11;103172.72;6315352;22;19899;-80
2022/03/25 03:18:44;;;;;;;;;;;;;;;16.09;58.20;103182.19;6340935;22;19906;-80
2022/03/25 03:21:09;;;;;;;;;;;;;;;16.10;57.85;103181.38;6340453;22;19902;-79
2022/03/25 03:23:37;;;;;;;;;;;;;;;16.10;58.49;103171.84;6365855;22;19918;-80
2022/03/25 03:26:03;;;;;;;;;;;;;;;16.11;58.37;103164.94;6338293;22;19905;-80
2022/03/25 03:28:28;;;;;;;;;;;;;;;16.06;58.58;103172.56;6337923;22;19907;-81
2022/03/25 03:30:55;;;;;;;;;;;;;;;16.04;58.57;103161.25;6365451;22;19907;-80
2022/03/25 03:33:20;;;;;;;;;;;;;;;16.06;58.42;103161.31;6338824;22;19890;-80
2022/03/25 03:35:45;;;;;;;;;;;;;;;16.10;58.25;103165.78;6338383;22;19942;-80
2022/03/25 03:38:11;;;;;;;;;;;;;;;16.10;57.79;103165.78;6340913;22;19897;-79
2022/03/25 03:40:38;;;;;;;;;;;;;;;16.06;57.79;103172.56;6339555;22;19897;-81
2022/03/25 03:43:04;;;;;;;;;;;;;;;16.14;57.97;103170.25;6339301;22;19928;-81
2022/03/25 03:45:32;;;;;;;;;;;;;;;16.12;58.18;103177.97;6338404;22;19894;-80
2022/03/25 03:47:57;;;;;;;;;;;;;;;16.08;58.10;103170.91;6332186;22;19918;-79
2022/03/25 03:50:23;;;;;;;;;;;;;;;16.09;58.22;103164.91;6310706;22;19934;-80
2022/03/25 03:52:48;;;;;;;;;;;;;;;16.12;58.23;103159.81;6312347;22;19910;-80
2022/03/25 03:55:14;;;;;;;;;;;;;;;16.15;58.14;103169.41;6363650;22;19918;-80
2022/03/25 03:57:40;;;;;;;;;;;;;;;16.17;58.35;103162.56;6335135;22;19906;-80
2022/03/25 04:00:06;;;;;;;;;;;;;;;16.09;57.39;103164.91;6308929;22;20001;-79
2022/03/25 04:02:31;;;;;;;;;;;;;;;16.08;57.83;103162.25;6335104;22;19906;-80
2022/03/25 04:04:57;;;;;;;;;;;;;;;16.14;57.81;103165.94;6309724;22;19933;-80
2022/03/25 04:07:23;;;;;;;;;;;;;;;16.17;58.23;103154.75;6336709;22;19918;-80
2022/03/25 04:09:48;;;;;;;;;;;;;;;16.18;57.86;103161.75;6336387;22;19906;-80
2022/03/25 04:12:13;;;;;;;;;;;;;;;16.24;58.10;103162.81;6337964;22;19910;-80
2022/03/25 04:14:39;;;;;;;;;;;;;;;16.24;57.82;103165.41;6312144;22;19914;-80
2022/03/25 04:17:04;;;;;;;;;;;;;;;16.19;57.79;103168.69;6337568;22;19906;-81
2022/03/25 04:19:29;;;;;;;;;;;;;;;16.14;57.58;103176.31;6310817;22;19958;-81
2022/03/25 04:21:55;;;;;;;;;;;;;;;16.14;57.58;103172.84;6311558;22;20335;-81
2022/03/25 04:24:20;;;;;;;;;;;;;;;16.11;57.36;103173.59;6312245;22;19998;-81
2022/03/25 04:26:45;;;;;;;;;;;;;;;16.08;57.32;103173.50;6339257;22;19910;-81
2022/03/25 04:29:11;;;;;;;;;;;;;;;16.03;57.54;103178.56;6336701;22;19891;-80
2022/03/25 04:31:36;;;;;;;;;;;;;;;16.02;57.82;103178.50;6306509;22;19915;-80
2022/03/25 04:34:01;;;;;;;;;;;;;;;16.02;57.61;103183.69;6337476;22;19906;-81
2022/03/25 04:36:27;;;;;;;;;;;;;;;15.99;57.61;103179.28;6336182;22;19954;-80
2022/03/25 04:38:52;;;;;;;;;;;;;;;16.01;57.06;103175.03;6310410;22;19997;-80
2022/03/25 04:41:17;;;;;;;;;;;;;;;16.01;57.45;103177.63;6309624;22;19916;-80
2022/03/25 04:43:43;;;;;;;;;;;;;;;16.02;58.09;103181.97;6307279;22;20246;-80
2022/03/25 04:46:08;;;;;;;;;;;;;;;16.10;58.04;103183.97;6331200;22;19915;-81
2022/03/25 04:48:33;;;;;;;;;;;;;;;16.11;57.68;103177.94;6364597;22;19918;-80
2022/03/25 04:51:01;;;;;;;;;;;;;;;16.12;57.31;103182.31;6363577;22;19890;-81
2022/03/25 04:53:26;;;;;;;;;;;;;;;16.14;57.44;103184.13;6334466;22;19953;-81
2022/03/25 04:55:52;;;;;;;;;;;;;;;16.13;57.84;103182.34;6335806;22;19913;-81
2022/03/25 04:58:17;;;;;;;;;;;;;;;16.11;57.39;103184.00;6365129;22;19906;-81
2022/03/25 05:00:44;;;;;;;;;;;;;;;16.07;56.91;103186.44;6365583;22;19907;-80
2022/03/25 05:03:09;;;;;;;;;;;;;;;16.07;57.23;103191.63;6334718;22;19917;-80
2022/03/25 05:05:35;;;;;;;;;;;;;;;16.06;57.38;103187.28;6334359;22;20067;-80
2022/03/25 05:08:01;;;;;;;;;;;;;;;16.01;57.07;103189.72;6307731;22;19911;-80
2022/03/25 05:10:27;;;;;;;;;;;;;;;15.94;56.62;103190.31;6358217;22;19918;-80
2022/03/25 05:12:53;;;;;;;;;;;;;;;15.86;56.48;103195.25;6355158;22;19928;-80
2022/03/25 05:15:19;;;;;;;;;;;;;;;15.81;56.27;103197.72;6333721;22;19906;-81
2022/03/25 05:17:49;;;;;;;;;;;;;;;15.76;56.39;103199.22;6311845;22;19932;-81
2022/03/25 05:20:15;;;;;;;;;;;;;;;15.76;56.23;103196.63;6365121;22;19951;-80
2022/03/25 05:22:42;;;;;;;;;;;;;;;15.77;56.53;103189.75;6340448;22;19928;-82
2022/03/25 05:25:13;;;;;;;;;;;;;;;15.75;56.48;103191.41;6340236;22;19950;-83
2022/03/25 05:28:07;;;;;;;;;;;;;;;15.74;55.91;103184.44;6367910;22;19925;-83
2022/03/25 05:39:20;;;;;;;;;;;;;;;15.71;56.09;103195.59;6359119;22;19918;-83
2022/03/25 05:42:03;;;;;;;;;;;;;;;15.71;55.72;103190.41;6342433;22;19945;-83
2022/03/25 06:02:13;;;;;;;;;;;;;;;15.76;55.90;103209.63;6365332;22;19921;-83
2022/03/25 06:11:22;;;;;;;;;;;;;;;15.91;55.38;103222.25;6283946;22;19926;-83
2022/03/25 06:17:15;;;;;;;;;;;;;;;16.03;55.42;103219.25;6309859;22;19911;-85
2022/03/25 06:20:02;;;;;;;;;;;;;;;16.07;56.44;103228.91;6275242;22;19948;-81
2022/03/25 06:22:27;;;;;;;;;;;;;;;16.11;54.90;103225.56;6238849;23;19963;-80
2022/03/25 06:24:54;;;;;;;;;;;;;;;16.11;56.57;103229.88;6262239;23;19939;-80
2022/03/25 06:27:20;;;;;;;;;;;;;;;16.44;52.57;103225.84;6262649;22;19938;-81
2022/03/25 06:35:22;;;;;;;;;;;;;;;16.84;51.31;103239.28;6297683;22;19934;-82
2022/03/25 06:40:32;;;;;;;;;;;;;;;17.07;50.79;103237.38;6351065;22;20251;-79
2022/03/25 06:42:57;;;;;;;;;;;;;;;17.19;50.46;103240.38;6325350;22;19913;-79
2022/03/25 06:45:24;;;;;;;;;;;;;;;17.47;49.63;103239.47;6299111;22;19949;-79
2022/03/25 06:47:49;;;;;;;;;;;;;;;17.77;48.92;103235.97;6325169;22;19907;-79
2022/03/25 06:50:15;;;;;;;;;;;;;;;17.95;49.14;103233.03;6334647;22;19957;-79
2022/03/25 06:52:41;;;;;;;;;;;;;;;18.08;49.15;103239.44;6337114;22;19907;-79
2022/03/25 06:55:07;;;;;;;;;;;;;;;18.17;48.33;103231.88;6362769;22;19907;-79
2022/03/25 06:57:32;;;;;;;;;;;;;;;18.31;48.29;103237.41;6359831;22;19906;-80
2022/03/25 06:59:58;;;;;;;;;;;;;;;18.36;48.46;103237.56;6311364;22;19910;-80
2022/03/25 07:02:23;;;;;;;;;;;;;;;18.48;47.36;103246.56;6314102;22;19901;-81
2022/03/25 07:04:48;;;;;;;;;;;;;;;18.55;47.11;103244.97;6337851;22;19914;-81
2022/03/25 07:07:17;;;;;;;;;;;;;;;18.63;47.30;103248.66;6331801;22;19906;-80
2022/03/25 07:09:42;;;;;;;;;;;;;;;18.68;46.66;103246.16;6323835;22;19906;-80
2022/03/25 07:12:08;;;;;;;;;;;;;;;18.76;45.92;103251.56;6317521;22;20270;-81
2022/03/25 07:14:33;;;;;;;;;;;;;;;18.82;46.36;103254.38;6314335;22;19942;-81
2022/03/25 07:16:58;;;;;;;;;;;;;;;18.91;45.32;103254.56;6313429;22;19911;-81
2022/03/25 07:19:25;;;;;;;;;;;;;;;18.89;47.06;103264.09;6287829;22;19915;-81
2022/03/25 07:21:51;;;;;;;;;;;;;;;18.99;45.01;103257.34;6314244;22;19911;-83
2022/03/25 07:24:16;;;;;;;;;;;;;;;19.00;45.74;103259.13;6313172;22;19907;-78
2022/03/25 07:26:41;;;;;;;;;;;;;;;19.04;45.21;103261.84;6286953;22;19950;-79
2022/03/25 07:29:07;;;;;;;;;;;;;;;19.08;45.43;103262.81;6286960;22;19918;-78
2022/03/25 07:31:32;;;;;;;;;;;;;;;19.14;44.69;103268.16;6312913;22;19912;-78
2022/03/25 07:33:58;;;;;;;;;;;;;;;19.17;43.93;103268.22;6312889;22;19906;-78
2022/03/25 07:36:24;;;;;;;;;;;;;;;19.15;45.55;103275.13;6313284;22;20364;-83
2022/03/25 07:38:49;;;;;;;;;;;;;;;19.22;44.28;103276.16;6340364;22;20323;-85
2022/03/25 07:41:14;;;;;;;;;;;;;;;19.29;44.35;103283.25;6287288;22;19915;-78
2022/03/25 07:43:40;;;;;;;;;;;;;;;19.26;45.58;103285.81;6312659;22;19907;-78
2022/03/25 07:46:05;;;;;;;;;;;;;;;19.21;45.96;103293.56;6312686;22;20338;-78
2022/03/25 07:48:30;;;;;;;;;;;;;;;19.11;46.12;103284.63;6312738;22;19907;-78
2022/03/25 07:50:56;;;;;;;;;;;;;;;19.19;43.87;103284.81;6286645;22;20383;-78
2022/03/25 07:53:21;;;;;;;;;;;;;;;19.16;44.54;103289.06;6313387;22;20265;-77
2022/03/25 07:55:50;;;;;;;;;;;;;;;18.90;43.57;103287.63;6313162;22;19994;-79
2022/03/25 07:58:19;;;;;;;;;;;;;;;18.47;45.78;103293.47;6292938;22;19949;-79
2022/03/25 08:00:44;;;;;;;;;;;;;;;18.23;46.58;103293.72;6347951;22;19907;-77
2022/03/25 08:03:10;;;;;;;;;;;;;;;18.35;45.89;103299.22;6293365;22;19954;-77
2022/03/25 08:05:35;;;;;;;;;;;;;;;18.65;45.00;103308.69;6295328;22;19922;-80
2022/03/25 08:08:03;;;;;;;;;;;;;;;18.76;44.83;103319.41;6297754;22;19960;-80
2022/03/25 08:10:29;;;;;;;;;;;;;;;18.75;44.41;103309.78;6324075;22;20346;-78
2022/03/25 08:12:56;;;;;;;;;;;;;;;18.66;43.57;103316.56;6323835;22;19911;-78
2022/03/25 08:15:22;;;;;;;;;;;;;;;18.71;46.12;103317.56;6324127;22;19906;-79
2022/03/25 08:17:55;;;;;;;;;;;;;;;18.75;43.80;103318.53;6351259;22;19981;-78
2022/03/25 08:20:33;;;;;;;;;;;;;;;18.76;45.94;103316.78;6323184;22;19907;-78
2022/03/25 08:22:59;;;;;;;;;;;;;;;18.75;46.19;103320.22;6324329;22;19907;-78
2022/03/25 08:28:09;;;;;;;;;;;;;;;18.73;44.49;103321.91;6352556;22;19952;-78
2022/03/25 08:30:36;;;;;;;;;;;;;;;18.69;44.73;103321.84;6324128;22;19962;-78
2022/03/25 08:33:01;;;;;;;;;;;;;;;18.69;44.11;103321.84;6323667;22;19914;-78
2022/03/25 08:35:27;;;;;;;;;;;;;;;18.71;45.69;103321.91;6297700;22;19934;-78
2022/03/25 08:37:53;;;;;;;;;;;;;;;18.67;45.73;103320.91;6295701;22;19911;-79
2022/03/25 08:40:19;;;;;;;;;;;;;;;18.67;45.06;103320.91;6296770;22;19962;-78
2022/03/25 08:42:44;;;;;;;;;;;;;;;18.68;45.82;103324.41;6321901;22;19922;-78
2022/03/25 08:45:13;;;;;;;;;;;;;;;18.64;43.33;103326.06;6349158;22;20232;-78
2022/03/25 08:47:38;;;;;;;;;;;;;;;18.49;42.88;103325.69;6322194;22;20244;-78
2022/03/25 08:50:04;;;;;;;;;;;;;;;18.47;42.38;103330.84;6295996;22;19921;-77
2022/03/25 08:52:29;;;;;;;;;;;;;;;18.48;45.76;103335.19;6349835;22;19899;-78
2022/03/25 08:54:57;;;;;;;;;;;;;;;18.49;45.99;103329.16;6322682;22;19906;-78
2022/03/25 08:57:22;;;;;;;;;;;;;;;18.52;43.79;103330.09;6319514;22;19907;-79
2022/03/25 08:59:50;;;;;;;;;;;;;;;18.46;45.41;103328.19;6348076;22;20235;-79
2022/03/25 09:02:23;;;;;;;;;;;;;;;18.42;41.37;103329.84;6317807;22;19910;-79
2022/03/25 09:04:49;;;;;;;;;;;;;;;18.40;42.83;103336.75;6294999;22;19911;-80
2022/03/25 09:07:15;;;;;;;;;;;;;;;18.34;42.73;103341.78;6294034;22;20465;-77
2022/03/25 09:09:40;;;;;;;;;;;;;;;18.38;42.16;103346.25;6347588;22;19933;-78
2022/03/25 09:12:05;;;;;;;;;;;;;;;18.38;43.68;103351.47;6293811;22;19963;-78
2022/03/25 09:14:31;;;;;;;;;;;;;;;18.39;42.55;103341.91;6292548;22;19911;-78
2022/03/25 09:16:56;;;;;;;;;;;;;;;18.32;41.91;103345.19;6292746;22;19917;-77
2022/03/25 09:19:24;;;;;;;;;;;;;;;18.29;42.46;103339.06;6346317;22;20338;-77
2022/03/25 09:21:49;;;;;;;;;;;;;;;18.30;44.15;103346.03;6292853;22;19917;-78
2022/03/25 09:24:15;;;;;;;;;;;;;;;18.33;43.67;103334.78;6293540;22;20318;-77
2022/03/25 09:26:40;;;;;;;;;;;;;;;18.30;43.35;103337.34;6292793;22;19914;-78
2022/03/25 09:29:09;;;;;;;;;;;;;;;18.28;43.30;103339.00;6318211;22;20319;-78
2022/03/25 09:31:34;;;;;;;;;;;;;;;18.27;42.88;103334.66;6318235;22;19906;-77
2022/03/25 09:36:43;;;;;;;;;;;;;;;18.31;44.85;103339.09;6345894;22;19913;-78
2022/03/25 09:39:09;;;;;;;;;;;;;;;18.23;42.80;103338.00;6345028;22;19946;-78
2022/03/25 09:41:35;;;;;;;;;;;;;;;18.06;42.37;103342.75;6346365;22;19911;-78
2022/03/25 09:44:00;;;;;;;;;;;;;;;18.02;43.11;103336.56;6318508;22;19974;-78
2022/03/25 09:46:26;;;;;;;;;;;;;;;18.10;43.65;103342.00;6292634;22;19915;-78
2022/03/25 09:48:51;;;;;;;;;;;;;;;18.06;42.97;103328.00;6293554;22;19911;-78
2022/03/25 09:51:16;;;;;;;;;;;;;;;18.05;42.93;103328.84;6318886;22;19938;-78
2022/03/25 09:53:41;;;;;;;;;;;;;;;18.13;44.08;103328.16;6294255;22;20319;-78
2022/03/25 09:56:07;;;;;;;;;;;;;;;18.05;43.52;103325.34;6318519;22;19913;-79
2022/03/25 09:58:33;;;;;;;;;;;;;;;17.98;42.83;103336.44;6294612;22;19911;-78
2022/03/25 10:00:59;;;;;;;;;;;;;;;17.97;43.20;103332.06;6348789;22;19985;-77
2022/03/25 10:03:27;;;;;;;;;;;;;;;17.92;43.40;103331.03;6348437;22;20220;-76
2022/03/25 10:05:53;;;;;;;;;;;;;;;17.96;43.80;103335.50;6320602;22;19959;-77
2022/03/25 10:08:27;;;;;;;;;;;;;;;17.98;43.38;103333.81;6294294;22;19911;-77
2022/03/25 10:10:53;;;;;;;;;;;;;;;17.96;43.84;103332.91;6321216;22;19928;-77
2022/03/25 10:13:19;;;;;;;;;;;;;;;17.96;43.20;103340.72;6348173;22;20319;-77
2022/03/25 10:15:44;;;;;;;;;;;;;;;17.97;43.82;103335.56;6347386;22;19910;-77
2022/03/25 10:18:09;;;;;;;;;;;;;;;17.91;43.24;103332.78;6318878;22;19913;-78
2022/03/25 10:20:42;;;;;;;;;;;;;;;17.88;43.90;103328.34;6292451;22;19910;-77
2022/03/25 10:23:14;;;;;;;;;;;;;;;17.85;44.23;103327.38;6317653;22;19952;-78
2022/03/25 10:25:47;;;;;;;;;;;;;;;17.83;43.17;103340.38;6345563;22;19918;-78
2022/03/25 10:28:29;;;;;;;;;;;;;;;17.85;43.28;103319.56;6318081;22;20441;-78
2022/03/25 10:30:54;;;;;;;;;;;;;;;17.77;43.62;103334.03;6317225;22;19911;-79
2022/03/25 10:33:32;;;;;;;;;;;;;;;17.86;44.15;103339.56;6318159;22;20212;-79
2022/03/25 10:35:58;;;;;;;;;;;;;;;17.71;43.18;103331.28;6317374;22;19929;-78
2022/03/25 10:38:24;;;;;;;;;;;;;;;17.73;43.99;103334.81;6317407;22;20311;-77
2022/03/25 10:40:53;;;;;;;;;;;;;;;17.75;44.00;103326.22;6344424;22;19932;-79
2022/03/25 10:43:21;;;;;;;;;;;;;;;17.80;43.76;103327.22;6291494;22;20212;-78
2022/03/25 10:45:50;;;;;;;;;;;;;;;17.84;43.17;103321.28;6316255;22;19910;-78
2022/03/25 10:48:16;;;;;;;;;;;;;;;17.82;43.24;103328.19;6315755;22;19917;-78
2022/03/25 10:51:00;;;;;;;;;;;;;;;17.76;42.68;103330.56;6316587;22;19914;-78
2022/03/25 10:53:35;;;;;;;;;;;;;;;17.83;44.39;103321.25;6317845;22;19907;-79
2022/03/25 10:56:03;;;;;;;;;;;;;;;17.81;44.03;103330.69;6318144;22;19906;-79
2022/03/25 10:58:29;;;;;;;;;;;;;;;17.72;43.37;103320.88;6318555;22;19906;-80
2022/03/25 11:00:54;;;;;;;;;;;;;;;17.72;43.77;103327.81;6319310;22;19911;-79
2022/03/25 11:03:20;;;;;;;;;;;;;;;17.72;43.34;103328.69;6291712;22;19934;-80
2022/03/25 11:05:45;;;;;;;;;;;;;;;17.77;43.63;103324.53;6318050;22;20272;-80
2022/03/25 11:08:17;;;;;;;;;;;;;;;17.78;42.64;103318.47;6292465;22;19958;-79
2022/03/25 11:10:43;;;;;;;;;;;;;;;17.80;44.24;103326.34;6317851;22;19940;-80
2022/03/25 11:13:08;;;;;;;;;;;;;;;17.90;43.59;103323.19;6316614;22;19907;-80
2022/03/25 11:15:34;;;;;;;;;;;;;;;17.89;42.87;103318.81;6318649;22;19917;-79
2022/03/25 11:18:00;;;;;;;;;;;;;;;17.88;43.38;103317.94;6295519;22;19911;-80
2022/03/25 11:20:26;;;;;;;;;;;;;;;17.88;43.33;103322.28;6322824;22;19907;-80
2022/03/25 11:22:57;;;;;;;;;;;;;;;17.80;42.60;103319.41;6305313;22;20018;-79
2022/03/25 11:25:23;;;;;;;;;;;;;;;17.84;43.06;103323.91;6294911;22;19949;-79
2022/03/25 11:27:51;;;;;;;;;;;;;;;17.79;42.39;103319.34;6264113;22;19911;-80
2022/03/25 11:30:17;;;;;;;;;;;;;;;17.81;42.69;103321.19;6290601;22;19932;-80
2022/03/25 11:33:00;;;;;;;;;;;;;;;17.71;42.54;103324.34;6290657;22;19910;-80
2022/03/25 11:35:26;;;;;;;;;;;;;;;17.74;42.75;103323.53;6316859;22;19913;-81
2022/03/25 11:38:09;;;;;;;;;;;;;;;17.82;43.36;103325.56;6318922;22;19930;-79
2022/03/25 11:40:35;;;;;;;;;;;;;;;17.79;42.21;103325.47;6317228;22;19906;-79
2022/03/25 11:45:38;;;;;;;;;;;;;;;17.75;41.77;103320.13;6325611;22;19919;-81
2022/03/25 11:48:04;;;;;;;;;;;;;;;17.62;41.44;103313.66;6293376;22;19907;-80
2022/03/25 11:50:30;;;;;;;;;;;;;;;17.67;42.49;103314.69;6289536;22;19956;-80
2022/03/25 11:53:16;;;;;;;;;;;;;;;17.78;43.05;103308.06;6292181;22;19932;-80
2022/03/25 11:55:59;;;;;;;;;;;;;;;17.83;42.59;103308.22;6297493;22;19906;-81
2022/03/25 11:58:24;;;;;;;;;;;;;;;17.85;42.68;103310.03;6296781;22;19911;-80
2022/03/25 12:00:52;;;;;;;;;;;;;;;17.84;42.14;103294.38;6293179;22;19914;-81
2022/03/25 12:03:17;;;;;;;;;;;;;;;17.80;42.87;103303.78;6296593;22;19907;-81
2022/03/25 12:06:04;;;;;;;;;;;;;;;17.77;42.04;103300.19;6275675;22;19944;-80
2022/03/25 12:08:31;;;;;;;;;;;;;;;17.79;42.07;103298.50;6297613;22;19907;-79
2022/03/25 12:10:57;;;;;;;;;;;;;;;17.76;41.33;103301.91;6294360;22;19907;-79
2022/03/25 12:13:42;;;;;;;;;;;;;;;17.80;41.46;103295.97;6269615;22;19911;-81
2022/03/25 12:16:10;;;;;;;;;;;;;;;17.87;41.94;103302.25;6291649;22;19927;-79
2022/03/25 12:18:44;;;;;;;;;;;;;;;17.87;41.98;103297.03;6269397;22;19918;-81
2022/03/25 12:21:28;;;;;;;;;;;;;;;17.85;41.99;103297.00;6268371;22;19918;-79
2022/03/25 12:23:55;;;;;;;;;;;;;;;17.87;42.20;103302.25;6293000;22;19953;-79
2022/03/25 12:26:29;;;;;;;;;;;;;;;17.82;40.81;103298.66;6290425;22;19911;-79
2022/03/25 12:28:54;;;;;;;;;;;;;;;17.75;40.74;103289.75;6289178;22;19965;-79
2022/03/25 12:31:20;;;;;;;;;;;;;;;17.71;41.44;103287.88;6316056;22;20221;-80
2022/03/25 12:33:51;;;;;;;;;;;;;;;17.74;41.12;103284.47;6262977;22;19961;-79
2022/03/25 12:36:17;;;;;;;;;;;;;;;17.78;40.92;103287.22;6288086;22;19910;-79
2022/03/25 12:38:44;;;;;;;;;;;;;;;17.82;40.83;103281.28;6289744;22;19928;-79
2022/03/25 12:41:09;;;;;;;;;;;;;;;17.77;40.53;103281.94;6262771;22;19918;-80
2022/03/25 12:43:35;;;;;;;;;;;;;;;17.83;41.00;103284.78;6259025;22;19919;-79
2022/03/25 12:46:07;;;;;;;;;;;;;;;17.84;41.15;103283.94;6230630;22;19927;-79
2022/03/25 12:48:37;;;;;;;;;;;;;;;17.97;42.58;103279.97;6257711;22;19955;-80
2022/03/25 12:51:04;;;;;;;;;;;;;;;18.07;42.51;103280.25;6257978;22;19907;-79
2022/03/25 12:53:29;;;;;;;;;;;;;;;18.16;42.60;103265.69;6230674;22;19936;-78
2022/03/25 12:55:55;;;;;;;;;;;;;;;18.18;42.41;103271.84;6281303;22;20324;-79
2022/03/25 12:58:23;;;;;;;;;;;;;;;18.17;42.61;103265.75;6283342;22;20319;-79
2022/03/25 13:00:53;;;;;;;;;;;;;;;18.17;42.50;103270.09;6282665;22;19935;-77
2022/03/25 13:03:19;;;;;;;;;;;;;;;18.19;41.76;103268.41;6284781;22;19907;-78
2022/03/25 13:05:45;;;;;;;;;;;;;;;18.15;41.77;103267.44;6233955;22;20345;-78
2022/03/25 13:08:10;;;;;;;;;;;;;;;18.17;41.85;103264.88;6259738;22;19907;-79
2022/03/25 13:10:37;;;;;;;;;;;;;;;18.19;41.64;103266.66;6263278;22;19973;-77
2022/03/25 13:13:03;;;;;;;;;;;;;;;18.18;41.57;103270.13;6258281;22;19960;-78
2022/03/25 13:15:30;;;;;;;;;;;;;;;18.17;41.60;103264.88;6258431;22;19908;-78
2022/03/25 13:17:59;;;;;;;;;;;;;;;18.20;41.18;103268.41;6266944;22;19907;-80
2022/03/25 13:20:29;;;;;;;;;;;;;;;18.22;41.16;103266.75;6259327;22;19994;-78
2022/03/25 13:22:58;;;;;;;;;;;;;;;18.24;41.05;103265.06;6258344;22;19907;-78
2022/03/25 13:25:36;;;;;;;;;;;;;;;18.27;40.34;103259.06;6256842;22;19911;-78
2022/03/25 13:28:03;;;;;;;;;;;;;;;18.27;40.21;103265.16;6256239;22;19931;-78